Time;durP1;ratioP1;P1;durP2;ratioP2;P2;SDS_P1;SDS_P2;PMS_P1;PMS_P2;Temp;Humidity;BMP_temperature;BMP_pressure;BME280_temperature;BME280_humidity;BME280_pressure;Samples;Min_cycle;Max_cycle;Signal;HPM_P1;HPM_P2
2022/02/01 00:00:04;;;;;;;13.13;4.72;;;;;;;-1.20;77.63;98087.44;1760997;81;20988;-69
2022/02/01 00:02:15;;;;;;;20.92;6.15;;;;;;;-1.19;77.35;98088.22;1757030;81;20936;-67
2022/02/01 00:04:50;;;;;;;15.35;5.28;;;;;;;-1.20;77.34;98091.48;1760447;81;21144;-68
2022/02/01 00:07:26;;;;;;;18.02;6.28;;;;;;;-1.20;77.22;98092.84;1759354;81;20936;-69
2022/02/01 00:10:06;;;;;;;18.48;6.37;;;;;;;-1.21;77.22;98089.85;1759388;81;20897;-68
2022/02/01 00:12:38;;;;;;;20.52;7.28;;;;;;;-1.21;77.14;98085.01;1758164;81;20896;-69
2022/02/01 00:20:20;;;;;;;20.85;7.00;;;;;;;-1.21;76.72;98099.88;1757815;81;21491;-66
2022/02/01 00:37:05;;;;;;;15.50;6.15;;;;;;;-1.21;76.17;98095.26;1757822;81;21477;-68
2022/02/01 00:39:13;;;;;;;18.55;7.10;;;;;;;-1.20;75.90;98101.48;1749165;81;21011;-68
2022/02/01 00:41:47;;;;;;;13.65;5.10;;;;;;;-1.21;75.87;98101.23;1757580;81;20997;-68
2022/02/01 00:44:13;;;;;;;16.37;5.50;;;;;;;-1.23;75.93;98110.41;1757135;81;21200;-68
2022/02/01 00:46:41;;;;;;;18.95;5.92;;;;;;;-1.23;75.79;98113.11;1758265;81;21421;-68
2022/02/01 00:49:09;;;;;;;16.10;4.92;;;;;;;-1.24;75.70;98112.86;1757821;81;21052;-68
2022/02/01 00:51:39;;;;;;;14.68;5.37;;;;;;;-1.24;75.84;98116.91;1756275;81;21513;-68
2022/02/01 00:54:08;;;;;;;11.08;4.87;;;;;;;-1.25;75.84;98110.44;1758053;81;20933;-69
2022/02/01 00:56:36;;;;;;;15.18;5.33;;;;;;;-1.26;75.90;98115.02;1757953;81;21140;-68
2022/02/01 00:59:05;;;;;;;17.67;5.83;;;;;;;-1.28;75.85;98109.08;1758038;81;20937;-67
2022/02/01 01:01:31;;;;;;;17.27;5.30;;;;;;;-1.29;75.80;98111.52;1757896;81;20968;-67
2022/02/01 01:04:00;;;;;;;15.88;5.05;;;;;;;-1.27;75.78;98116.65;1757796;81;21019;-67
2022/02/01 01:06:28;;;;;;;15.55;5.45;;;;;;;-1.28;75.81;98114.48;1757764;81;21019;-68
2022/02/01 01:08:57;;;;;;;12.90;5.28;;;;;;;-1.28;75.87;98110.42;1730008;81;21222;-68
2022/02/01 01:11:27;;;;;;;14.87;5.37;;;;;;;-1.29;75.81;98112.88;1757083;81;21036;-68
2022/02/01 01:43:30;;;;;;;19.57;5.87;;;;;;;-1.34;76.30;98125.05;1738173;82;20890;-69
2022/02/01 01:44:21;;;;;;;21.35;7.12;;;;;;;-1.33;76.25;98124.52;1738081;82;20973;-69
2022/02/01 01:55:04;;;;;;;15.70;5.05;;;;;;;-1.37;76.52;98134.53;1735004;82;20985;-68
2022/02/01 01:57:32;;;;;;;17.25;6.15;;;;;;;-1.38;76.49;98141.00;1707012;84;20948;-67
2022/02/01 02:00:00;;;;;;;22.67;7.47;;;;;;;-1.37;76.56;98130.48;1736252;82;20901;-68
2022/02/01 02:02:29;;;;;;;23.45;7.25;;;;;;;-1.33;76.41;98139.39;1707261;84;21545;-69
2022/02/01 02:04:57;;;;;;;15.70;5.72;;;;;;;-1.32;76.33;98132.88;1735777;82;20921;-67
2022/02/01 02:07:26;;;;;;;12.60;5.72;;;;;;;-1.33;76.27;98132.06;1707088;84;20908;-68
2022/02/01 02:09:53;;;;;;;18.20;4.97;;;;;;;-1.35;76.21;98138.31;1712869;82;21473;-69
2022/02/01 02:12:38;;;;;;;15.15;5.67;;;;;;;-1.37;76.29;98143.17;1707086;84;21027;-69
2022/02/01 02:14:52;;;;;;;14.83;5.12;;;;;;;-1.37;76.36;98136.42;1733555;82;21078;-68
2022/02/01 02:17:20;;;;;;;14.28;5.15;;;;;;;-1.38;76.35;98139.66;1707071;84;20940;-67
2022/02/01 02:19:54;;;;;;;21.00;5.35;;;;;;;-1.36;76.38;98143.43;1731965;82;21009;-69
2022/02/01 02:22:23;;;;;;;16.17;5.47;;;;;;;-1.37;76.31;98134.53;1737615;82;20937;-68
2022/02/01 02:24:51;;;;;;;20.45;6.20;;;;;;;-1.34;76.29;98146.67;1708174;84;21572;-69
2022/02/01 02:27:23;;;;;;;14.25;5.55;;;;;;;-1.36;76.31;98140.73;1731197;82;21298;-68
2022/02/01 02:29:51;;;;;;;17.42;5.35;;;;;;;-1.37;76.26;98138.59;1737687;82;20977;-68
2022/02/01 02:32:18;;;;;;;22.22;7.35;;;;;;;-1.37;76.32;98141.83;1737921;82;21044;-68
2022/02/01 02:34:46;;;;;;;20.90;6.85;;;;;;;-1.38;76.36;98149.11;1737456;82;20906;-69
2022/02/01 02:37:17;;;;;;;21.27;6.95;;;;;;;-1.38;76.35;98151.03;1737620;82;20953;-68
2022/02/01 02:40:01;;;;;;;21.07;8.23;;;;;;;-1.40;76.45;98145.88;1737504;82;21407;-68
2022/02/01 02:42:34;;;;;;;;;;;;;;;-1.38;76.47;98153.17;1737638;82;20881;-68
2022/02/01 02:45:04;;;;;;;16.07;6.33;;;;;;;-1.39;76.42;98158.31;1736312;82;20160;-69
2022/02/01 02:47:32;;;;;;;18.00;6.28;;;;;;;-1.37;76.23;98157.51;1737846;82;21001;-67
2022/02/01 02:50:03;;;;;;;15.10;4.97;;;;;;;-1.37;76.05;98165.62;1711363;82;21458;-66
2022/02/01 02:52:30;;;;;;;15.90;5.55;;;;;;;-1.39;76.07;98169.13;1737502;82;21162;-66
2022/02/01 02:55:01;;;;;;;11.78;4.87;;;;;;;-1.41;76.05;98169.94;1710693;82;20905;-67
2022/02/01 02:57:35;;;;;;;16.42;5.90;;;;;;;-1.41;76.05;98174.52;1737920;82;21458;-67
2022/02/01 03:00:02;;;;;;;23.38;7.08;;;;;;;-1.41;76.02;98169.94;1737596;82;20986;-67
2022/02/01 03:02:30;;;;;;;15.88;5.92;;;;;;;-1.38;75.96;98174.00;1710835;82;20979;-68
2022/02/01 03:05:01;;;;;;;16.07;5.90;;;;;;;-1.39;75.97;98169.66;1737405;82;21760;-68
2022/02/01 03:07:31;;;;;;;13.83;5.40;;;;;;;-1.39;75.94;98175.06;1737600;82;20945;-68
2022/02/01 03:09:59;;;;;;;15.30;6.33;;;;;;;-1.39;75.90;98176.42;1734050;82;20949;-68
2022/02/01 03:12:58;;;;;;;27.27;10.78;;;;;;;-1.38;75.86;98184.81;1737500;82;21008;-68
2022/02/01 03:15:34;;;;;;;28.15;10.95;;;;;;;-1.39;75.71;98181.83;1733666;82;20965;-68
2022/02/01 03:20:27;;;;;;;19.70;6.20;;;;;;;-1.40;75.68;98189.67;1702226;83;20947;-67
2022/02/01 03:22:57;;;;;;;21.80;6.03;;;;;;;-1.42;75.65;98185.89;1698075;83;20974;-68
2022/02/01 03:25:25;;;;;;;26.30;7.05;;;;;;;-1.42;75.73;98193.19;1722695;83;20982;-68
2022/02/01 03:27:52;;;;;;;19.92;6.33;;;;;;;-1.44;75.90;98192.11;1722821;83;21534;-68
2022/02/01 03:30:22;;;;;;;21.37;6.28;;;;;;;-1.43;75.97;98188.88;1722647;83;21156;-67
2022/02/01 03:32:49;;;;;;;17.07;6.72;;;;;;;-1.44;76.01;98198.05;1722767;83;20970;-67
2022/02/01 03:35:17;;;;;;;16.90;6.53;;;;;;;-1.45;76.20;98202.63;1722567;83;20958;-68
2022/02/01 03:37:51;;;;;;;20.12;8.23;;;;;;;-1.45;76.29;98203.20;1722427;83;20957;-67
2022/02/01 03:40:21;;;;;;;19.32;7.62;;;;;;;-1.46;76.32;98201.02;1698367;83;20989;-67
2022/02/01 03:42:51;;;;;;;22.77;8.20;;;;;;;-1.48;76.44;98195.89;1722644;83;21207;-68
2022/02/01 03:45:19;;;;;;;18.27;7.72;;;;;;;-1.48;76.55;98193.73;1722625;83;20985;-68
2022/02/01 03:47:50;;;;;;;23.70;7.90;;;;;;;-1.48;76.58;98195.08;1697946;83;20943;-68
2022/02/01 03:50:18;;;;;;;21.93;7.67;;;;;;;-1.50;76.62;98194.00;1722129;83;21125;-68
2022/02/01 03:52:45;;;;;;;25.30;8.13;;;;;;;-1.52;76.73;98198.86;1722651;83;20859;-67
2022/02/01 03:55:13;;;;;;;21.02;6.90;;;;;;;-1.54;76.86;98205.63;1722650;83;22090;-69
2022/02/01 03:57:41;;;;;;;15.98;5.55;;;;;;;-1.55;76.99;98196.70;1697986;83;20982;-68
2022/02/01 04:00:10;;;;;;;15.28;6.10;;;;;;;-1.57;77.03;98201.59;1722671;83;20982;-68
2022/02/01 04:02:43;;;;;;;21.90;6.87;;;;;;;-1.56;77.08;98203.73;1722625;83;20934;-69
2022/02/01 04:05:13;;;;;;;25.30;7.03;;;;;;;-1.59;77.13;98211.30;1722806;83;20965;-68
2022/02/01 04:07:45;;;;;;;18.85;6.55;;;;;;;-1.61;77.19;98207.26;1722870;83;21474;-68
2022/02/01 04:10:11;;;;;;;23.60;6.85;;;;;;;-1.64;77.32;98214.00;1722230;83;21514;-68
2022/02/01 04:12:41;;;;;;;20.20;5.97;;;;;;;-1.66;77.44;98221.59;1722594;83;20930;-68
2022/02/01 04:15:11;;;;;;;18.23;6.72;;;;;;;-1.65;77.56;98219.67;1722690;83;21005;-69
2022/02/01 04:17:39;;;;;;;23.25;8.05;;;;;;;-1.65;77.59;98225.08;1722555;83;20978;-69
2022/02/01 04:20:08;;;;;;;19.10;6.50;;;;;;;-1.65;77.59;98219.67;1726143;82;21159;-68
2022/02/01 04:22:41;;;;;;;17.35;7.30;;;;;;;-1.67;77.63;98223.21;1734710;82;20929;-69
2022/02/01 04:25:12;;;;;;;18.98;6.42;;;;;;;-1.68;77.60;98229.15;1734632;82;20997;-67
2022/02/01 04:27:42;;;;;;;16.67;5.75;;;;;;;-1.71;77.64;98228.34;1734639;82;20941;-68
2022/02/01 04:30:12;;;;;;;20.05;6.75;;;;;;;-1.71;77.66;98226.99;1734581;82;20993;-69
2022/02/01 04:32:41;;;;;;;16.10;6.12;;;;;;;-1.74;77.65;98228.33;1734783;82;21127;-69
2022/02/01 04:35:13;;;;;;;26.33;7.22;;;;;;;-1.77;77.72;98230.22;1733655;82;21020;-69
2022/02/01 04:37:40;;;;;;;19.77;6.53;;;;;;;-1.79;77.71;98234.29;1734682;82;20980;-69
2022/02/01 04:40:12;;;;;;;15.45;6.30;;;;;;;-1.82;77.75;98234.80;1734510;82;21096;-69
2022/02/01 04:42:42;;;;;;;16.67;6.08;;;;;;;-1.84;77.90;98235.89;1734765;82;21048;-69
2022/02/01 04:45:18;;;;;;;25.15;7.45;;;;;;;-1.86;77.89;98239.39;1734607;82;20986;-67
2022/02/01 04:47:45;;;;;;;21.02;6.22;;;;;;;-1.89;78.00;98237.77;1735150;82;20929;-67
2022/02/01 04:50:18;;;;;;;17.17;7.80;;;;;;;-1.91;78.13;98242.66;1734710;82;21068;-68
2022/02/01 04:52:46;;;;;;;19.35;5.87;;;;;;;-1.91;78.20;98239.95;1734748;82;20894;-68
2022/02/01 04:55:14;;;;;;;20.43;6.17;;;;;;;-1.91;78.18;98238.60;1734603;82;21087;-68
2022/02/01 04:58:14;;;;;;;17.85;7.95;;;;;;;-1.92;78.19;98247.77;1734476;82;21440;-67
2022/02/01 05:00:16;;;;;;;18.55;6.85;;;;;;;-1.94;78.24;98248.59;1716947;82;20942;-69
2022/02/01 05:02:44;;;;;;;27.42;7.80;;;;;;;-1.98;78.30;98252.37;1734768;82;20894;-69
2022/02/01 05:05:10;;;;;;;21.23;7.65;;;;;;;-2.00;78.29;98253.98;1734616;82;20941;-69
2022/02/01 05:07:40;;;;;;;26.48;8.78;;;;;;;-2.00;78.32;98264.78;1734800;82;21004;-69
2022/02/01 05:10:10;;;;;;;20.72;7.97;;;;;;;-2.02;78.38;98266.12;1734630;82;21559;-69
2022/02/01 05:12:38;;;;;;;27.27;9.38;;;;;;;-2.03;78.46;98272.05;1705809;82;20886;-69
2022/02/01 05:15:07;;;;;;;30.77;10.00;;;;;;;-2.05;78.53;98275.58;1734923;82;20953;-69
2022/02/01 05:17:37;;;;;;;20.00;8.03;;;;;;;-2.06;78.62;98269.09;1734486;82;20862;-69
2022/02/01 05:20:17;;;;;;;25.65;9.53;;;;;;;-2.08;78.62;98280.95;1734719;82;21171;-68
2022/02/01 05:22:34;;;;;;;33.98;10.00;;;;;;;-2.10;78.70;98283.66;1732132;82;21535;-69
2022/02/01 05:25:06;;;;;;;29.25;9.40;;;;;;;-2.11;78.75;98293.64;1734756;82;21003;-69
2022/02/01 05:27:39;;;;;;;26.17;10.08;;;;;;;-2.13;78.87;98295.79;1707483;82;20949;-69
2022/02/01 05:30:09;;;;;;;29.52;10.40;;;;;;;-2.12;78.93;98296.61;1734637;82;21001;-67
2022/02/01 05:32:36;;;;;;;33.88;11.60;;;;;;;-2.16;79.01;98309.83;1734781;82;20858;-69
2022/02/01 05:35:06;;;;;;;28.75;10.63;;;;;;;-2.17;79.09;98312.27;1734630;82;21142;-68
2022/02/01 05:37:34;;;;;;;36.25;10.65;;;;;;;-2.17;78.99;98314.14;1735445;82;20945;-69
2022/02/01 05:40:08;;;;;;;35.10;11.45;;;;;;;-2.21;79.07;98320.61;1734757;82;20953;-66
2022/02/01 05:43:22;;;;;;;36.75;11.60;;;;;;;-2.25;79.24;98321.66;1735017;82;20934;-67
2022/02/01 05:45:10;;;;;;;27.77;9.75;;;;;;;-2.24;79.25;98316.56;1708588;82;21100;-71
2022/02/01 05:47:40;;;;;;;31.55;9.25;;;;;;;-2.25;79.22;98323.02;1734716;82;21837;-69
2022/02/01 05:50:13;;;;;;;25.30;10.68;;;;;;;-2.29;79.32;98330.03;1734663;82;21038;-69
2022/02/01 05:52:41;;;;;;;26.45;10.35;;;;;;;-2.29;79.36;98331.91;1734742;82;20998;-68
2022/02/01 05:55:11;;;;;;;34.05;11.48;;;;;;;-2.29;79.43;98334.61;1734568;82;21533;-68
2022/02/01 05:57:38;;;;;;;26.93;9.75;;;;;;;-2.30;79.46;98341.89;1734609;82;21016;-68
2022/02/01 06:00:08;;;;;;;34.65;11.85;;;;;;;-2.31;79.44;98347.02;1734661;82;21102;-68
2022/02/01 06:02:36;;;;;;;29.85;10.63;;;;;;;-2.32;79.39;98349.45;1734466;82;20914;-68
2022/02/01 06:05:03;;;;;;;32.28;11.38;;;;;;;-2.32;79.41;98355.65;1734880;82;20917;-69
2022/02/01 06:07:33;;;;;;;31.55;12.07;;;;;;;-2.33;79.41;98363.48;1734774;82;21466;-70
2022/02/01 06:10:06;;;;;;;27.48;10.55;;;;;;;-2.34;79.45;98368.59;1733917;82;20938;-67
2022/02/01 06:12:43;;;;;;;28.47;10.55;;;;;;;-2.34;79.47;98366.45;1735143;82;21754;-68
2022/02/01 06:15:15;;;;;;;29.40;11.15;;;;;;;-2.34;79.38;98369.14;1734663;82;21478;-67
2022/02/01 06:17:49;;;;;;;31.90;10.73;;;;;;;-2.35;79.38;98376.42;1735162;82;20962;-69
2022/02/01 06:20:19;;;;;;;34.38;10.90;;;;;;;-2.36;79.42;98375.34;1732774;82;21426;-69
2022/02/01 06:22:46;;;;;;;32.98;11.28;;;;;;;-2.35;79.50;98383.70;1730497;83;20926;-68
2022/02/01 06:25:12;;;;;;;35.83;12.03;;;;;;;-2.35;79.52;98390.44;1730422;83;21507;-68
2022/02/01 06:27:44;;;;;;;36.15;12.60;;;;;;;-2.34;79.41;98394.78;1730367;83;20993;-68
2022/02/01 06:30:13;;;;;;;34.75;11.70;;;;;;;-2.34;79.35;98394.78;1730382;83;21052;-68
2022/02/01 06:32:40;;;;;;;41.37;13.08;;;;;;;-2.33;79.41;98396.39;1730509;82;20929;-69
2022/02/01 06:35:09;;;;;;;36.10;11.00;;;;;;;-2.31;79.22;98392.91;1730422;83;21457;-68
2022/02/01 06:37:39;;;;;;;36.95;14.38;;;;;;;-2.31;79.27;98394.25;1730527;83;21174;-68
2022/02/01 06:40:09;;;;;;;31.02;10.60;;;;;;;-2.30;79.29;98396.42;1730507;83;20938;-69
2022/02/01 06:42:37;;;;;;;33.10;11.50;;;;;;;-2.27;79.20;98402.08;1705719;83;20966;-69
2022/02/01 06:45:06;;;;;;;35.90;10.85;;;;;;;-2.26;79.12;98399.68;1730534;83;21044;-68
2022/02/01 06:47:36;;;;;;;33.48;11.30;;;;;;;-2.26;79.12;98401.03;1730733;83;20898;-68
2022/02/01 06:50:05;;;;;;;30.15;10.98;;;;;;;-2.23;79.01;98405.08;1730412;83;21563;-69
2022/02/01 06:52:34;;;;;;;34.88;8.93;;;;;;;-2.23;79.03;98404.55;1706018;83;20889;-68
2022/02/01 06:55:02;;;;;;;30.30;10.82;;;;;;;-2.21;79.01;98409.68;1705381;83;21005;-68
2022/02/01 06:57:40;;;;;;;26.20;10.43;;;;;;;-2.20;78.86;98410.77;1730461;83;20976;-68
2022/02/01 07:00:09;;;;;;;25.27;9.98;;;;;;;-2.15;78.91;98419.98;1705478;83;21421;-69
2022/02/01 07:02:37;;;;;;;23.75;7.95;;;;;;;-2.13;78.73;98423.23;1730821;83;21107;-69
2022/02/01 07:05:05;;;;;;;25.68;9.83;;;;;;;-2.13;78.67;98424.02;1730220;83;21407;-68
2022/02/01 07:07:31;;;;;;;26.60;9.15;;;;;;;-2.12;78.74;98427.02;1730557;83;20918;-69
2022/02/01 07:09:58;;;;;;;30.10;8.98;;;;;;;-2.10;78.58;98432.94;1730330;83;21629;-69
2022/02/01 07:12:28;;;;;;;19.80;8.53;;;;;;;-2.07;78.65;98435.67;1730742;83;21010;-69
2022/02/01 07:14:56;;;;;;;24.75;9.20;;;;;;;-2.03;78.55;98439.45;1730518;83;21673;-69
2022/02/01 07:17:25;;;;;;;28.12;10.23;;;;;;;-2.01;78.42;98442.71;1730354;83;20941;-69
2022/02/01 07:19:51;;;;;;;27.17;9.03;;;;;;;-1.98;78.22;98438.13;1730544;83;20937;-69
2022/02/01 07:22:19;;;;;;;31.93;11.05;;;;;;;-1.95;78.18;98443.55;1733816;82;20874;-69
2022/02/01 07:25:01;;;;;;;23.42;9.58;;;;;;;-1.92;78.17;98438.15;1734617;82;20986;-69
2022/02/01 07:27:37;;;;;;;28.73;9.88;;;;;;;-1.89;78.15;98438.97;1703124;82;22151;-68
2022/02/01 07:29:49;;;;;;;25.88;9.95;;;;;;;-1.87;78.02;98439.52;1731186;82;21546;-69
2022/02/01 07:32:19;;;;;;;24.15;10.72;;;;;;;-1.85;77.91;98428.75;1705819;82;21473;-68
2022/02/01 07:34:46;;;;;;;30.48;9.63;;;;;;;-1.80;77.65;98431.17;1734641;82;20937;-69
2022/02/01 07:37:15;;;;;;;39.63;14.65;;;;;;;-1.80;77.59;98438.75;1734662;82;20937;-68
2022/02/01 07:39:41;;;;;;;33.53;11.78;;;;;;;-1.79;77.62;98441.72;1734587;82;21152;-69
2022/02/01 07:42:11;;;;;;;32.15;13.32;;;;;;;-1.73;77.51;98438.50;1734508;82;21069;-69
2022/02/01 07:44:39;;;;;;;35.45;13.93;;;;;;;-1.68;77.23;98439.88;1734651;82;21048;-68
2022/02/01 07:47:16;;;;;;;25.92;12.07;;;;;;;-1.66;77.18;98449.06;1734797;82;21042;-69
2022/02/01 07:49:35;;;;;;;33.40;11.22;;;;;;;-1.65;77.26;98452.84;1733099;82;21435;-69
2022/02/01 07:52:02;;;;;;;36.63;15.00;;;;;;;-1.60;77.17;98446.64;1705515;82;21069;-68
2022/02/01 07:54:30;;;;;;;53.95;19.80;;;;;;;-1.57;76.93;98456.12;1734474;82;21494;-67
2022/02/01 07:56:58;;;;;;;49.88;19.32;;;;;;;-1.55;76.84;98453.41;1734547;82;20925;-69
2022/02/01 07:59:26;;;;;;;32.30;13.30;;;;;;;-1.49;76.62;98461.83;1734558;82;20969;-69
2022/02/01 08:01:55;;;;;;;26.50;10.88;;;;;;;-1.49;76.15;98465.88;1734565;82;20946;-68
2022/02/01 08:04:23;;;;;;;29.63;11.05;;;;;;;-1.49;76.06;98465.88;1734625;82;21156;-70
2022/02/01 08:06:51;;;;;;;34.10;11.53;;;;;;;-1.48;76.02;98470.19;1734579;82;20983;-67
2022/02/01 08:09:25;;;;;;;35.43;11.65;;;;;;;-1.47;76.03;98477.77;1705659;82;21005;-68
2022/02/01 08:11:48;;;;;;;31.87;11.43;;;;;;;-1.48;75.65;98485.06;1733903;82;21088;-69
2022/02/01 08:17:51;;;;;;;25.37;10.00;;;;;;;-1.43;75.91;98480.20;1734830;82;21159;-69
2022/02/01 08:19:39;;;;;;;25.65;10.78;;;;;;;-1.39;75.62;98485.89;1704989;82;20937;-68
2022/02/01 08:22:29;;;;;;;31.42;11.03;;;;;;;-1.39;75.48;98485.36;1734798;82;21430;-67
2022/02/01 08:24:38;;;;;;;29.75;12.73;;;;;;;-1.37;75.35;98487.80;1731171;82;21532;-69
2022/02/01 08:27:05;;;;;;;28.90;11.57;;;;;;;-1.35;75.37;98484.30;1705774;82;20858;-69
2022/02/01 08:29:32;;;;;;;26.65;10.30;;;;;;;-1.30;75.09;98490.24;1705781;82;21168;-69
2022/02/01 08:32:02;;;;;;;29.10;11.40;;;;;;;-1.28;74.91;98487.53;1706255;82;21000;-68
2022/02/01 08:34:28;;;;;;;29.12;12.63;;;;;;;-1.25;74.82;98491.61;1705883;82;21575;-68
2022/02/01 08:36:54;;;;;;;32.75;13.68;;;;;;;-1.23;74.96;98491.60;1705938;82;21076;-69
2022/02/01 08:39:21;;;;;;;30.25;12.70;;;;;;;-1.19;74.72;98490.53;1734845;82;20945;-68
2022/02/01 08:41:49;;;;;;;31.23;12.70;;;;;;;-1.15;74.52;98493.52;1734680;82;21077;-69
2022/02/01 08:44:16;;;;;;;32.73;13.22;;;;;;;-1.16;74.17;98488.64;1734715;82;20925;-68
2022/02/01 08:46:45;;;;;;;32.53;10.50;;;;;;;-1.13;74.08;98500.83;1735033;82;21075;-69
2022/02/01 08:49:13;;;;;;;28.20;12.15;;;;;;;-1.14;74.00;98501.36;1734641;82;20941;-68
2022/02/01 08:51:43;;;;;;;28.40;10.48;;;;;;;-1.13;73.94;98512.47;1734917;82;21064;-67
2022/02/01 08:54:20;;;;;;;35.28;11.78;;;;;;;-1.12;73.95;98508.67;1734766;82;21164;-69
2022/02/01 08:59:36;;;;;;;39.73;12.03;;;;;;;-1.06;74.11;98510.86;1734762;82;20985;-69
2022/02/01 09:02:04;;;;;;;28.92;11.35;;;;;;;-0.97;74.25;98521.14;1734780;82;20941;-68
2022/02/01 09:04:32;;;;;;;29.82;10.50;;;;;;;-0.95;74.03;98518.96;1734840;82;20905;-69
2022/02/01 09:06:59;;;;;;;30.82;11.48;;;;;;;-0.92;74.31;98521.16;1734599;82;21170;-69
2022/02/01 09:09:28;;;;;;;28.07;10.08;;;;;;;-0.86;74.29;98516.84;1734788;82;21514;-69
2022/02/01 09:11:56;;;;;;;33.02;12.23;;;;;;;-0.80;73.67;98511.44;1735025;82;21066;-68
2022/02/01 09:14:24;;;;;;;44.88;11.73;;;;;;;-0.81;73.28;98510.61;1734732;82;20948;-69
2022/02/01 09:16:51;;;;;;;20.12;9.60;;;;;;;-0.82;73.36;98513.02;1735053;82;21553;-68
2022/02/01 09:19:18;;;;;;;30.20;12.10;;;;;;;-0.78;73.36;98518.19;1734625;82;21148;-69
2022/02/01 09:21:48;;;;;;;34.33;12.15;;;;;;;-0.73;73.15;98516.02;1733330;82;20990;-70
2022/02/01 09:24:15;;;;;;;31.62;11.60;;;;;;;-0.70;72.89;98518.73;1730500;83;20962;-69
2022/02/01 09:26:47;;;;;;;27.32;11.83;;;;;;;-0.68;72.96;98516.58;1730537;83;21490;-68
2022/02/01 09:29:14;;;;;;;26.27;11.73;;;;;;;-0.65;73.09;98508.71;1705978;83;20894;-67
2022/02/01 09:31:40;;;;;;;26.25;10.20;;;;;;;-0.56;72.99;98518.46;1730656;83;21070;-68
2022/02/01 09:34:09;;;;;;;24.25;10.75;;;;;;;-0.51;72.51;98503.58;1730424;83;21024;-68
2022/02/01 09:36:37;;;;;;;26.20;9.90;;;;;;;-0.49;71.97;98500.59;1730808;83;21434;-69
2022/02/01 09:39:08;;;;;;;25.70;9.83;;;;;;;-0.52;72.04;98506.55;1730489;83;20898;-70
2022/02/01 09:41:41;;;;;;;;;;;;;;;-0.52;72.05;98502.49;1733032;83;21565;-68
2022/02/01 09:44:08;;;;;;;27.30;10.28;;;;;;;-0.48;72.36;98495.47;1730225;83;20555;-67
2022/02/01 09:46:36;;;;;;;27.62;10.40;;;;;;;-0.40;72.42;98496.27;1730149;83;20992;-69
2022/02/01 09:49:10;;;;;;;26.00;10.98;;;;;;;-0.33;71.68;98492.47;1737373;81;21055;-69
2022/02/01 09:51:36;;;;;;;22.02;9.55;;;;;;;-0.36;71.36;98489.77;1740338;81;21486;-67
2022/02/01 09:54:03;;;;;;;25.80;9.93;;;;;;;-0.37;71.33;98490.84;1719407;82;21037;-68
2022/02/01 09:56:31;;;;;;;21.97;9.13;;;;;;;-0.39;71.32;98491.64;1739114;81;21136;-67
2022/02/01 09:58:59;;;;;;;31.00;11.22;;;;;;;-0.43;71.05;98497.35;1741291;81;21027;-66
2022/02/01 10:01:30;;;;;;;27.22;11.08;;;;;;;-0.46;70.92;98497.34;1738782;81;21088;-66
2022/02/01 10:04:07;;;;;;;28.95;10.80;;;;;;;-0.49;71.20;98489.77;1737667;81;21154;-67
2022/02/01 10:06:38;;;;;;;23.50;9.88;;;;;;;-0.48;71.52;98493.30;1739888;81;21050;-67
2022/02/01 10:09:15;;;;;;;27.05;10.70;;;;;;;-0.45;71.60;98501.69;1741434;81;21029;-67
2022/02/01 10:11:46;;;;;;;20.50;9.18;;;;;;;-0.42;71.08;98504.38;1741492;81;20954;-66
2022/02/01 10:14:36;;;;;;;24.02;10.63;;;;;;;-0.43;71.21;98504.12;1742065;81;21464;-68
2022/02/01 10:17:00;;;;;;;19.27;8.93;;;;;;;-0.43;71.16;98502.23;1734651;81;21008;-67
2022/02/01 10:19:22;;;;;;;26.93;9.00;;;;;;;-0.39;71.09;98504.66;1740214;81;21051;-67
2022/02/01 10:22:00;;;;;;;22.22;9.33;;;;;;;-0.34;71.04;98510.59;1738833;81;21060;-68
2022/02/01 10:24:36;;;;;;;24.07;9.63;;;;;;;-0.30;70.63;98517.10;1739787;81;21075;-68
2022/02/01 10:27:17;;;;;;;27.55;10.00;;;;;;;-0.32;70.56;98515.20;1742726;81;20954;-66
2022/02/01 10:30:02;;;;;;;25.97;10.72;;;;;;;-0.31;70.75;98509.25;1743619;81;20943;-66
2022/02/01 10:32:34;;;;;;;21.95;10.58;;;;;;;-0.28;70.43;98509.52;1745624;81;21381;-65
2022/02/01 10:34:54;;;;;;;27.50;9.48;;;;;;;-0.27;70.27;98505.72;1742667;81;21080;-65
2022/02/01 10:37:26;;;;;;;22.00;9.25;;;;;;;-0.25;70.10;98510.33;1755402;81;21004;-67
2022/02/01 10:39:59;;;;;;;26.07;9.88;;;;;;;-0.24;69.92;98519.27;1754705;81;21547;-68
2022/02/01 10:42:27;;;;;;;30.10;8.95;;;;;;;-0.27;69.52;98513.84;1755152;80;21095;-67
2022/02/01 10:44:58;;;;;;;29.35;9.70;;;;;;;-0.28;69.51;98511.41;1754705;81;20993;-67
2022/02/01 10:47:42;;;;;;;29.57;9.98;;;;;;;-0.31;69.48;98512.78;1754126;81;21769;-65
2022/02/01 10:50:16;;;;;;;23.90;9.75;;;;;;;-0.32;69.83;98510.32;1760744;81;21156;-66
2022/02/01 10:52:51;;;;;;;22.82;9.23;;;;;;;-0.30;69.75;98518.45;1757727;81;21437;-67
2022/02/01 10:55:19;;;;;;;28.80;10.72;;;;;;;-0.27;69.72;98523.85;1760179;81;20992;-66
2022/02/01 10:57:47;;;;;;;23.92;9.63;;;;;;;-0.26;69.68;98523.58;1760338;81;21028;-67
2022/02/01 11:00:19;;;;;;;20.12;9.13;;;;;;;-0.23;69.67;98519.53;1724292;82;21159;-68
2022/02/01 11:02:46;;;;;;;19.35;9.23;;;;;;;-0.20;68.81;98526.28;1731173;82;21091;-68
2022/02/01 11:05:18;;;;;;;17.15;8.35;;;;;;;-0.21;68.50;98521.96;1730656;82;20991;-67
2022/02/01 11:07:51;;;;;;;22.65;10.08;;;;;;;-0.24;67.96;98521.98;1730881;82;38530;-65
2022/02/01 11:10:19;;;;;;;;;;;;;;;-0.24;68.10;98516.56;1732066;82;20967;-67
2022/02/01 11:12:46;;;;;;;28.75;9.30;;;;;;;-0.22;68.21;98517.08;1724691;82;21557;-67
2022/02/01 11:15:21;;;;;;;21.48;10.28;;;;;;;-0.18;68.31;98520.06;1753736;81;20940;-68
2022/02/01 11:17:50;;;;;;;24.15;8.83;;;;;;;-0.15;67.96;98510.84;1738472;81;21106;-65
2022/02/01 11:20:29;;;;;;;20.60;8.18;;;;;;;-0.12;67.72;98516.28;1738270;81;21007;-68
2022/02/01 11:23:12;;;;;;;17.40;8.45;;;;;;;-0.11;67.72;98519.78;1730549;82;21587;-66
2022/02/01 11:25:52;;;;;;;29.57;10.13;;;;;;;-0.11;67.50;98519.24;1733865;81;21160;-67
2022/02/01 11:28:44;;;;;;;24.85;9.78;;;;;;;-0.10;67.68;98522.20;1758571;81;21000;-67
2022/02/01 11:31:03;;;;;;;22.02;9.93;;;;;;;-0.08;67.50;98515.98;1720569;81;21060;-68
2022/02/01 11:33:39;;;;;;;31.87;10.25;;;;;;;-0.09;67.95;98510.84;1733748;82;21067;-67
2022/02/01 11:36:09;;;;;;;25.72;12.70;;;;;;;-0.06;68.14;98512.47;1695481;82;20961;-66
2022/02/01 11:38:52;;;;;;;30.00;12.28;;;;;;;0.00;68.37;98510.56;1763409;79;21721;-65
2022/02/01 11:41:32;;;;;;;22.98;10.10;;;;;;;0.05;68.06;98505.67;1743903;81;21484;-67
2022/02/01 11:44:29;;;;;;;21.17;9.30;;;;;;;0.07;68.02;98507.57;1768545;81;21548;-68
2022/02/01 11:47:11;;;;;;;17.82;7.87;;;;;;;0.10;67.74;98512.44;1740217;81;21051;-70
2022/02/01 11:50:00;;;;;;;17.73;9.03;;;;;;;0.14;67.19;98504.00;1735673;81;21113;-67
2022/02/01 11:52:27;;;;;;;15.65;8.43;;;;;;;0.15;66.42;98504.83;1740616;81;21211;-69
2022/02/01 11:55:05;;;;;;;19.35;7.17;;;;;;;0.10;66.40;98505.66;1742397;81;21065;-69
2022/02/01 11:57:38;;;;;;;17.48;6.80;;;;;;;0.08;65.61;98505.11;1742413;81;21512;-69
2022/02/01 12:00:12;;;;;;;18.12;7.60;;;;;;;0.06;65.90;98496.45;1770649;80;20976;-70
2022/02/01 12:02:52;;;;;;;27.98;11.88;;;;;;;0.11;65.79;98497.78;1732767;81;21536;-68
2022/02/01 12:05:28;;;;;;;23.73;9.13;;;;;;;0.14;64.82;98489.10;1735647;81;21103;-67
2022/02/01 12:08:14;;;;;;;17.35;6.95;;;;;;;0.15;64.81;98490.74;1738423;81;21020;-68
2022/02/01 12:10:52;;;;;;;18.52;8.10;;;;;;;0.18;64.51;98496.14;1736767;81;21008;-69
2022/02/01 12:13:22;;;;;;;16.48;7.12;;;;;;;0.18;63.64;98496.95;1736908;81;21045;-69
2022/02/01 12:15:54;;;;;;;20.72;8.38;;;;;;;0.16;63.99;98491.00;1743539;81;21126;-70
2022/02/01 12:18:31;;;;;;;21.17;9.73;;;;;;;0.18;64.12;98502.38;1738515;82;21124;-69
2022/02/01 12:21:27;;;;;;;30.75;12.25;;;;;;;0.24;64.37;98497.73;1742534;81;21000;-67
2022/02/01 12:23:57;;;;;;;24.07;9.18;;;;;;;0.29;64.00;98495.01;1727610;82;20960;-69
2022/02/01 12:26:33;;;;;;;;;;;;;;;0.28;63.54;98498.00;1730055;83;21531;-68
2022/02/01 12:29:00;;;;;;;22.73;9.03;;;;;;;0.26;63.37;98505.05;1727808;81;20088;-69
2022/02/01 12:31:28;;;;;;;25.12;9.78;;;;;;;0.24;63.09;98507.22;1734999;82;21667;-70
2022/02/01 12:33:57;;;;;;;30.75;10.03;;;;;;;0.20;63.27;98509.70;1746933;81;21063;-69
2022/02/01 12:36:31;;;;;;;26.33;9.13;;;;;;;0.21;63.57;98510.48;1725967;82;21012;-69
2022/02/01 12:39:10;;;;;;;18.20;7.55;;;;;;;0.23;62.92;98519.16;1721319;82;21052;-69
2022/02/01 12:41:44;;;;;;;20.40;7.53;;;;;;;0.19;62.25;98519.42;1763233;80;21059;-68